Aérodrome :
LOGIN :

S'inscrire | Disclaimer

   EN    FR    IT 

 










Légende :    VFR   VFR Marginal   IFR   IFR Intensif   IFR Très Intensif
Visi : 
Plafond : 
>= 8 km
>= 3000ft
5 à 8 km
1000 à 3000 ft
1500m à 5 km
500 à 1000 ft
800 à 1500m
200 à 500 ft
< 800m
< 200 ft
Symboles :   Orages  Brouillard  Fortes neiges  Fortes précipitations  Vent > 20 kt
SIGMETs :   Divers  Orages  Givrage  Turbulence  Onde Orograph.  Cendres Volcan.







- Altitude de l'aérodrome : 74 ft
- Code IATA : LRH
- Voir les cartes d'approche


LFBH - La Rochelle Ile de Ré

DERNIER METAR :
  • 160000Z AUTO 00000KT 9999 BKN019 OVC034 14/13 Q1014 TEMPO 3000 BR OVC010

METARs EXPIRÉS :
  • 152330Z AUTO 14002KT 9999 BKN019 OVC026 14/13 Q1013 TEMPO 3000 BR OVC010
  • 152300Z AUTO 00000KT 9999 BKN019 OVC025 14/13 Q1013 TEMPO 3000 BR OVC006
  • 152230Z AUTO VRB01KT 9999 FEW008 BKN016 OVC022 14/13 Q1013 TEMPO 3000 BR OVC006
  • 152200Z AUTO 00000KT 9999 BKN007 OVC013 14/13 Q1013 TEMPO BKN012
  • 152130Z AUTO 00000KT 9999 BKN011 OVC017 14/13 Q1012 NOSIG

TAF TAF LFBH
Valide du 16 à 00h jusqu'au 17 à 00h UTC


152300Z 1600/1624 22005KT 9999 SCT018
PROB40 1600/1610 3000 BR OVC010
PROB30 1602/1609 0500 FG VV///
BECMG 1611/1613 CAVOK
TEMPO 1613/1618 30010KT
ATIS : +33 5 46 00 13 92
Pas de NOTAMs connus pour ce terrain.



MET'MAP, la Météo Aéronautique d'un coup d'oeil ! - Copyright ORBIFLY Décembre 2007 - Disclaimer

ORBIFLY MET'MAP TEAM :

Programmation & Développement : Alexandra Zaïnal
Conception & Développement : Baudouin d'Aumeries
Co-Programmation & Développement : Marc-Olivier Méhu
Soutien technique & logistique : Manuel Goepfert

Contact : metmap@orbifly.com




SOURCES & CREDITS :

   NOAA